Kezdőlap
METAR-TAF:

METAR-TAF

Repülőterek :

Genf, Svájc

földrajzi szélesség: 46-15N, földrajzi hosszúság: 006-08E, magasság: 420 m

Jelenlegi meteorológiai megfigyelések

A jelentés 43 perccel ezelõtt készült, 19:50 UTC
Délnyugati szél 3 kt
Hőmérséklet 10°C
Páratartalom 57%
Légköri nyomás 1032 hPa
Látótávolság 10 km, vagy több
felhőtlen 1500 m magasságban, és nincs gomolyfelhõ

METAR: LSGG 221950Z 23003KT CAVOK 10/02 Q1032 NOSIG

Idő: 21:33 (20:33 UTC)

Előrejelzés

A jelentés 3 órával és 8 perccel ezelõtt készült, 17:25 UTC
Az előrejelzés 22-én 18 óra UTC és 23-én 24 óra UTC között érvényes
Délnyugati szél 5 kt
Látótávolság 10 km, vagy több
felhőtlen 1500 m magasságban, és nincs gomolyfelhõ
23-én 10 óra UTC és 23-én 12 óra UTC között fokozatosan kialakuló
Délnyugati szél 12 kt

TAF: LSGG 221725Z 2218/2324 23005KT CAVOK TX16/2315Z TN01/2306Z BECMG 2310/2312 23012KT

Meteorológiai megfigyelések és előrejelzések több, mint 4000 repülőtéren (METAR és TAF jelentéseket).

A térképen piros és sárga pontok jelzik az elérhető meteorológiai állomásokat.

Mozgassa az egeret a pont fölött, hogy megjelenjen az állomás neve.

Azután kattintson az időjárási megfigyelések és előrejelzések megtekintéséhez.

A térkép megváltoztatása: kattintson a fekete keresztel jelölt zöld gombra ráközelítéshez, a vonallal jelölt zöld gombra távolításhoz, vagy a zöld nyilakra a szomszédos térképek eléréséhez.


METAR-TAF: